Whiting Field Naval Air Station North Airport
KNSE : now visible

Airfield :











YOU CAN JOIN US ON...

 
LOGIN :

Register | Disclaimer

   EN    FR    IT 

 









Legend :    VFR   Marginal VFR   IFR   Intensive IFR   Very Intensive IFR
Visi :
Ceiling :
>= 8 km
>= 3000ft
5 to 8 km
1000 to 3000 ft
1500m to 5 km
500 to 1000 ft
800 to 1500m
200 to 500 ft
< 800m
< 200 ft
Symbols :   Thunderstorms  Fog  Heavy snow  Heavy precipitations  Wind > 20 kt






- Airport Elevation : 199 ft


KNSE - Whiting Field Naval Air Station North

CURRENT METAR :
  • 110356Z 02016G23KT 10SM SCT020 OVC034 11/07 A3022 RMK SLP218 T01060067

EXPIRED METARs :
  • 110256Z 02013G22KT 10SM FEW019 OVC034 11/07 A3019 RMK SLP211 T01110072 51020
  • 110156Z 02008G17KT 340V110 10SM BKN018 OVC034 12/09 A3018 RMK SLP207 T01170089

TAF TAF KNSE
Valid from the 10 at 23:00 until the 11 at 23:00 UTC


1023/1123 36013G20KT 9999 VCSH BKN012 OVC025 QNH3009INS
BECMG 1101/1103 01014G24KT 9000 -RA SCT008 OVC012 621209 520009 QNH3013INS
TEMPO 1103/1109 02012KT 3200 -RA BR OVC008
FM111500 02013G22KT 9999 SCT015 BKN050 OVC120 621004 500000 QNH3038INS
FM111900 03009G15KT 9999 SCT050 SCT120 BKN200 600000 QNH3035INS AUTOMATED SENSOR METWATCH 1105 TIL 1112 T05/1112Z T11/1120Z FN20029



MET'MAP, your aeronautical weather chart ! - Copyright ORBIFLY December 2007 - Disclaimer

ORBIFLY MET'MAP TEAM :

Programming & Development : Alexandra Zaïnal
Concept & original design : Baudouin d'Aumeries
Assistance for programming : Marc-Olivier Méhu
Technical & hardware support : Manuel Goepfert

Contact : metmap@orbifly.com




SOURCES & CREDITS :

   NOAA       Earth
Advisory